Time;durP1;ratioP1;P1;durP2;ratioP2;P2;SDS_P1;SDS_P2;PMS_P1;PMS_P2;Temp;Humidity;BMP_temperature;BMP_pressure;BME280_temperature;BME280_humidity;BME280_pressure;Samples;Min_cycle;Max_cycle;Signal;HPM_P1;HPM_P2
2022/02/11 00:02:04;;;;;;;3.60;0.95;;;;;10.40;101939.00;;;;5087546;28;20273;-81
2022/02/11 00:07:21;;;;;;;3.00;0.70;;;;;10.40;101935.00;;;;5066749;28;20202;-81
2022/02/11 00:09:50;;;;;;;1.52;0.60;;;;;10.40;101935.00;;;;5072439;28;20816;-81
2022/02/11 00:12:17;;;;;;;1.90;0.40;;;;;10.40;101942.00;;;;5089684;28;20190;-81
2022/02/11 00:14:52;;;;;;;3.63;0.85;;;;;10.40;101935.00;;;;5092523;28;20205;-81
2022/02/11 00:17:19;;;;;;;2.30;0.75;;;;;10.40;101938.00;;;;5085679;28;20251;-81
2022/02/11 00:19:47;;;;;;;8.07;1.60;;;;;10.40;101939.00;;;;5091176;28;20233;-80
2022/02/11 00:22:14;;;;;;;2.40;0.73;;;;;10.40;101930.00;;;;5092004;28;20197;-81
2022/02/11 00:24:42;;;;;;;2.05;0.55;;;;;10.40;101929.00;;;;5092073;28;20199;-81
2022/02/11 00:27:43;;;;;;;2.53;0.52;;;;;10.40;101933.00;;;;5071804;28;20202;-81
2022/02/11 00:30:49;;;;;;;1.92;0.40;;;;;10.40;101931.00;;;;5085120;28;20698;-81
2022/02/11 00:33:23;;;;;;;3.67;0.85;;;;;10.40;101935.00;;;;5091864;28;20193;-81
2022/02/11 00:35:55;;;;;;;3.83;1.02;;;;;10.40;101940.00;;;;5091834;28;20562;-81
2022/02/11 00:38:30;;;;;;;1.92;0.43;;;;;10.40;101937.00;;;;5091170;28;20247;-81
2022/02/11 00:44:52;;;;;;;4.05;0.57;;;;;10.50;101929.00;;;;5087518;28;20198;-81
2022/02/11 00:47:18;;;;;;;2.47;0.55;;;;;10.50;101928.00;;;;5090874;28;20277;-81
2022/02/11 01:03:48;;;;;;;4.32;0.50;;;;;10.70;101915.00;;;;5060785;28;20228;-81
2022/02/11 01:06:15;;;;;;;4.30;0.77;;;;;10.70;101913.00;;;;5088976;28;20225;-81
2022/02/11 01:08:42;;;;;;;7.68;1.10;;;;;10.80;101903.00;;;;5083055;28;20206;-80
2022/02/11 01:11:16;;;;;;;1.13;0.43;;;;;10.80;101894.00;;;;5086623;28;20205;-80
2022/02/11 01:13:43;;;;;;;2.08;0.70;;;;;10.80;101893.00;;;;5083752;28;20234;-80
2022/02/11 01:16:18;;;;;;;1.95;0.43;;;;;10.80;101882.00;;;;5076019;28;20193;-81
2022/02/11 01:18:51;;;;;;;3.53;0.93;;;;;10.90;101884.00;;;;5090197;28;20224;-81
2022/02/11 01:21:26;;;;;;;6.70;1.30;;;;;10.90;101883.00;;;;5078436;28;20207;-81
2022/02/11 01:24:01;;;;;;;1.00;0.50;;;;;10.80;101882.00;;;;5070279;28;20194;-81
2022/02/11 01:26:40;;;;;;;4.82;0.50;;;;;10.80;101895.00;;;;5074868;28;20186;-81
2022/02/11 01:29:34;;;;;;;9.68;0.73;;;;;10.80;101896.00;;;;5090008;28;20202;-80
2022/02/11 01:32:19;;;;;;;4.95;0.70;;;;;10.80;101895.00;;;;5084084;28;20195;-81
2022/02/11 01:34:57;;;;;;;1.75;0.80;;;;;10.90;101898.00;;;;5085557;28;20209;-81
2022/02/11 01:37:33;;;;;;;2.25;0.63;;;;;10.90;101906.00;;;;5086283;28;20203;-81
2022/02/11 01:51:40;;;;;;;2.92;0.60;;;;;11.00;101943.00;;;;5047859;28;20203;-82
2022/02/11 01:54:14;;;;;;;1.25;0.60;;;;;11.00;101944.00;;;;5036068;28;20204;-82
2022/02/11 01:56:52;;;;;;;2.08;0.93;;;;;11.00;101926.00;;;;5082578;28;20194;-82
2022/02/11 02:22:36;;;;;;;0.88;0.50;;;;;10.90;101917.00;;;;5119125;28;20269;-79
2022/02/11 02:25:09;;;;;;;3.83;0.77;;;;;10.90;101916.00;;;;5105608;28;20189;-80
2022/02/11 02:27:54;;;;;;;1.30;0.52;;;;;10.90;101913.00;;;;5118673;27;20239;-80
2022/02/11 02:33:38;;;;;;;3.65;0.55;;;;;11.00;101908.00;;;;5106659;28;20204;-80
2022/02/11 02:36:50;;;;;;;3.33;1.00;;;;;11.00;101907.00;;;;5085120;28;20287;-80
2022/02/11 02:39:36;;;;;;;4.85;1.10;;;;;11.00;101911.00;;;;5085508;28;20234;-80
2022/02/11 02:50:35;;;;;;;2.20;0.70;;;;;11.10;101900.00;;;;5100899;28;20212;-80
2022/02/11 02:58:38;;;;;;;2.05;0.60;;;;;11.20;101897.00;;;;5067274;28;20209;-79
2022/02/11 03:01:30;;;;;;;6.40;0.88;;;;;11.20;101907.00;;;;5090173;28;20206;-79
2022/02/11 03:31:30;;;;;;;3.08;0.60;;;;;11.30;101931.00;;;;5085712;28;20279;-80
2022/02/11 03:57:29;;;;;;;2.92;0.70;;;;;11.30;101966.00;;;;5012628;28;20235;-80
2022/02/11 04:08:37;;;;;;;9.48;1.55;;;;;11.40;101989.00;;;;5081346;28;20220;-80
2022/02/11 04:22:34;;;;;;;2.40;0.82;;;;;11.40;102021.00;;;;5070112;28;20252;-80
2022/02/11 04:26:02;;;;;;;6.82;1.23;;;;;11.30;102020.00;;;;5071068;28;20202;-80
2022/02/11 04:53:45;;;;;;;4.95;1.25;;;;;11.30;102080.00;;;;5073401;28;20274;-80
2022/02/11 04:56:03;;;;;;;8.20;1.00;;;;;11.30;102078.00;;;;5073476;28;20227;-79
2022/02/11 05:01:16;;;;;;;3.33;0.80;;;;;11.30;102093.00;;;;5077215;28;20230;-81
2022/02/11 05:03:43;;;;;;;5.38;1.10;;;;;11.30;102093.00;;;;5090592;28;20194;-80
2022/02/11 05:06:10;;;;;;;7.35;1.45;;;;;11.30;102099.00;;;;5093362;28;20687;-80
2022/02/11 05:08:37;;;;;;;3.47;1.05;;;;;11.30;102109.00;;;;5091089;28;20265;-81
2022/02/11 05:11:09;;;;;;;7.63;1.27;;;;;11.30;102130.00;;;;5095495;28;20224;-81
2022/02/11 05:13:37;;;;;;;7.60;1.23;;;;;11.40;102127.00;;;;5083681;28;20648;-80
2022/02/11 05:16:04;;;;;;;4.65;1.13;;;;;11.40;102127.00;;;;5088428;28;20261;-79
2022/02/11 05:18:32;;;;;;;8.80;1.05;;;;;11.40;102144.00;;;;5092996;28;20202;-79
2022/02/11 05:20:59;;;;;;;4.70;1.23;;;;;11.40;102148.00;;;;5091535;28;20198;-80
2022/02/11 05:23:26;;;;;;;4.35;1.20;;;;;11.40;102151.00;;;;5072632;28;20199;-80
2022/02/11 05:25:53;;;;;;;3.55;0.90;;;;;11.40;102144.00;;;;5082040;28;20191;-80
2022/02/11 05:28:22;;;;;;;3.10;0.77;;;;;11.30;102150.00;;;;5082808;28;20568;-80
2022/02/11 05:30:49;;;;;;;4.00;1.20;;;;;11.30;102159.00;;;;5086684;28;20195;-80
2022/02/11 05:33:16;;;;;;;3.47;0.63;;;;;11.30;102166.00;;;;5082640;28;20198;-80
2022/02/11 05:35:44;;;;;;;4.03;1.00;;;;;11.30;102167.00;;;;5080737;28;20758;-80
2022/02/11 05:38:11;;;;;;;4.63;0.88;;;;;11.30;102179.00;;;;5089228;28;20207;-79
2022/02/11 05:40:39;;;;;;;4.55;0.95;;;;;11.30;102183.00;;;;5096304;28;20193;-80
2022/02/11 05:43:06;;;;;;;8.50;1.48;;;;;11.30;102194.00;;;;5082857;28;20191;-80
2022/02/11 05:45:35;;;;;;;4.70;1.10;;;;;11.30;102212.00;;;;5094790;28;20206;-80
2022/02/11 05:48:02;;;;;;;4.47;0.93;;;;;11.30;102226.00;;;;5088221;28;20195;-79
2022/02/11 05:50:30;;;;;;;6.93;1.20;;;;;11.30;102232.00;;;;5077127;28;20203;-80
2022/02/11 05:52:57;;;;;;;2.83;0.47;;;;;11.30;102247.00;;;;5087005;28;20199;-81
2022/02/11 05:55:25;;;;;;;4.72;1.30;;;;;11.20;102231.00;;;;5091041;28;20225;-79
2022/02/11 05:57:52;;;;;;;3.35;0.57;;;;;11.20;102232.00;;;;5094603;28;20569;-81
2022/02/11 06:00:20;;;;;;;2.13;0.25;;;;;11.20;102245.00;;;;5092305;28;20210;-80
2022/02/11 06:02:48;;;;;;;4.35;0.90;;;;;11.10;102227.00;;;;5074057;28;20199;-80
2022/02/11 06:05:16;;;;;;;5.63;1.05;;;;;11.10;102245.00;;;;5077732;28;20191;-80
2022/02/11 06:07:44;;;;;;;3.25;0.80;;;;;11.00;102255.00;;;;5076384;28;20210;-80
2022/02/11 06:10:11;;;;;;;2.17;0.98;;;;;10.90;102257.00;;;;5088143;28;20205;-80
2022/02/11 06:12:38;;;;;;;4.18;0.75;;;;;10.80;102259.00;;;;5081029;28;20229;-80
2022/02/11 06:15:07;;;;;;;4.68;1.05;;;;;10.70;102268.00;;;;5079611;28;20231;-81
2022/02/11 06:17:35;;;;;;;2.40;0.70;;;;;10.60;102270.00;;;;5073301;28;20233;-81
2022/02/11 06:20:04;;;;;;;7.55;0.73;;;;;10.50;102284.00;;;;5073072;28;20568;-80
2022/02/11 06:22:33;;;;;;;3.30;0.80;;;;;10.50;102279.00;;;;5072137;28;20195;-82
2022/02/11 06:25:00;;;;;;;4.57;0.60;;;;;10.50;102287.00;;;;5073294;28;20218;-81
2022/02/11 06:27:28;;;;;;;6.05;0.80;;;;;10.40;102302.00;;;;5080989;28;20198;-82
2022/02/11 06:29:55;;;;;;;4.05;0.88;;;;;10.40;102294.00;;;;5092607;28;20250;-82
2022/02/11 06:32:23;;;;;;;4.47;0.95;;;;;10.30;102302.00;;;;5087621;28;20587;-82
2022/02/11 06:34:55;;;;;;;3.90;0.90;;;;;10.30;102311.00;;;;5096405;28;20582;-82
2022/02/11 06:37:24;;;;;;;4.28;0.52;;;;;10.20;102321.00;;;;5096984;28;20194;-81
2022/02/11 06:39:52;;;;;;;3.42;0.45;;;;;10.20;102328.00;;;;5088236;28;20194;-81
2022/02/11 06:42:20;;;;;;;2.40;0.50;;;;;10.20;102324.00;;;;5083028;28;20214;-82
2022/02/11 06:44:47;;;;;;;2.03;0.75;;;;;10.20;102331.00;;;;5089526;28;20189;-82
2022/02/11 06:47:17;;;;;;;4.80;0.63;;;;;10.20;102344.00;;;;5079817;28;20324;-81
2022/02/11 06:49:45;;;;;;;2.92;1.10;;;;;10.10;102347.00;;;;5080732;28;20688;-83
2022/02/11 06:52:12;;;;;;;5.75;0.98;;;;;10.10;102362.00;;;;5086202;28;20199;-83
2022/02/11 06:54:41;;;;;;;2.83;0.52;;;;;10.10;102360.00;;;;5095938;28;20198;-81
2022/02/11 06:57:08;;;;;;;4.03;1.05;;;;;10.10;102361.00;;;;5092272;28;20222;-83
2022/02/11 06:59:35;;;;;;;6.68;1.55;;;;;10.10;102371.00;;;;5082848;28;20195;-83
2022/02/11 07:02:03;;;;;;;3.40;1.02;;;;;10.10;102376.00;;;;5076513;28;20207;-82
2022/02/11 07:04:30;;;;;;;4.70;0.82;;;;;10.10;102391.00;;;;5080546;28;20656;-83
2022/02/11 07:06:59;;;;;;;2.75;0.60;;;;;10.10;102399.00;;;;5093694;28;20644;-82
2022/02/11 07:09:26;;;;;;;4.07;0.70;;;;;10.10;102399.00;;;;5077536;28;20198;-83
2022/02/11 07:11:55;;;;;;;4.80;0.80;;;;;10.00;102404.00;;;;5074618;28;20194;-82
2022/02/11 07:14:22;;;;;;;3.50;0.70;;;;;10.10;102405.00;;;;5075523;28;20626;-83
2022/02/11 07:16:49;;;;;;;6.00;1.23;;;;;10.10;102411.00;;;;5084387;28;20229;-83
2022/02/11 07:19:17;;;;;;;9.88;1.33;;;;;10.10;102428.00;;;;5086135;28;20198;-82
2022/02/11 07:21:47;;;;;;;9.20;1.23;;;;;10.20;102435.00;;;;5085380;28;20719;-83
2022/02/11 07:24:14;;;;;;;3.42;1.30;;;;;10.20;102441.00;;;;5074384;28;20587;-82
2022/02/11 07:26:43;;;;;;;2.92;0.93;;;;;10.20;102451.00;;;;5072837;28;20195;-82
2022/02/11 07:29:14;;;;;;;8.68;1.33;;;;;10.20;102470.00;;;;5083018;28;20205;-82
2022/02/11 07:31:42;;;;;;;10.88;1.02;;;;;10.30;102472.00;;;;5092635;28;20186;-81
2022/02/11 07:34:09;;;;;;;2.97;0.65;;;;;10.30;102474.00;;;;5094781;28;20210;-81
2022/02/11 07:36:37;;;;;;;7.10;1.40;;;;;10.40;102473.00;;;;5110526;28;20221;-84
2022/02/11 07:39:06;;;;;;;4.55;1.30;;;;;10.40;102493.00;;;;5088058;28;20190;-80
2022/02/11 07:41:33;;;;;;;3.00;0.40;;;;;10.40;102497.00;;;;5075950;28;20195;-81
2022/02/11 07:44:00;;;;;;;3.22;0.50;;;;;10.50;102492.00;;;;5072216;28;20202;-80
2022/02/11 07:46:29;;;;;;;7.80;1.23;;;;;10.50;102501.00;;;;5080755;28;20277;-81
2022/02/11 07:48:57;;;;;;;5.50;0.68;;;;;10.50;102498.00;;;;5073769;28;20218;-81
2022/02/11 07:51:24;;;;;;;2.17;0.43;;;;;10.50;102508.00;;;;5080326;28;20201;-82
2022/02/11 07:53:52;;;;;;;4.85;0.82;;;;;10.60;102514.00;;;;5089427;28;20210;-83
2022/02/11 07:56:20;;;;;;;2.67;0.68;;;;;10.60;102512.00;;;;5072249;28;20215;-89
2022/02/11 07:58:48;;;;;;;3.55;0.77;;;;;10.60;102520.00;;;;5080186;28;20244;-85
2022/02/11 08:01:19;;;;;;;9.05;1.58;;;;;10.70;102529.00;;;;5086214;28;20198;-85
2022/02/11 08:03:50;;;;;;;3.60;0.75;;;;;10.70;102544.00;;;;5076987;28;20199;-84
2022/02/11 08:06:18;;;;;;;1.92;0.85;;;;;10.70;102563.00;;;;5078363;28;20207;-84
2022/02/11 08:08:45;;;;;;;8.95;2.05;;;;;10.80;102546.00;;;;5079018;28;20202;-84
2022/02/11 08:11:12;;;;;;;3.00;1.02;;;;;10.70;102553.00;;;;5089918;28;20216;-85
2022/02/11 08:13:40;;;;;;;7.90;1.73;;;;;10.70;102567.00;;;;5094937;28;20298;-83
2022/02/11 08:16:08;;;;;;;4.07;1.25;;;;;10.70;102580.00;;;;5087721;28;20235;-82
2022/02/11 08:18:35;;;;;;;5.05;1.33;;;;;10.70;102587.00;;;;5070352;28;20190;-81
2022/02/11 08:21:04;;;;;;;4.25;1.02;;;;;10.70;102583.00;;;;5070621;28;20195;-82
2022/02/11 08:23:32;;;;;;;4.00;1.60;;;;;10.70;102588.00;;;;5076374;28;20195;-81
2022/02/11 08:25:59;;;;;;;5.20;1.52;;;;;10.60;102604.00;;;;5083671;28;20199;-81
2022/02/11 08:28:27;;;;;;;2.45;1.10;;;;;10.70;102598.00;;;;5084194;28;20195;-82
2022/02/11 08:30:54;;;;;;;6.28;1.00;;;;;10.60;102602.00;;;;5080306;28;20198;-84
2022/02/11 08:33:23;;;;;;;4.28;1.15;;;;;10.70;102610.00;;;;5072696;28;20202;-81
2022/02/11 08:35:52;;;;;;;3.28;1.13;;;;;10.70;102620.00;;;;5081922;28;20214;-80
2022/02/11 08:38:23;;;;;;;5.90;1.52;;;;;10.70;102625.00;;;;5075778;28;20199;-80
2022/02/11 08:40:51;;;;;;;3.72;1.33;;;;;10.80;102631.00;;;;5098279;28;20201;-81
2022/02/11 08:43:19;;;;;;;2.72;0.82;;;;;10.80;102639.00;;;;5103515;28;20198;-81
2022/02/11 08:45:46;;;;;;;7.30;0.90;;;;;10.80;102639.00;;;;5079064;28;20187;-83
2022/02/11 08:48:15;;;;;;;5.18;1.35;;;;;10.80;102643.00;;;;5095157;28;20676;-80
2022/02/11 08:50:43;;;;;;;5.00;1.60;;;;;10.90;102655.00;;;;5098729;28;20221;-83
2022/02/11 08:53:11;;;;;;;6.15;1.17;;;;;10.90;102664.00;;;;5090164;28;20186;-83
2022/02/11 08:55:40;;;;;;;5.15;0.85;;;;;10.90;102662.00;;;;5073081;28;20290;-81
2022/02/11 08:58:08;;;;;;;4.90;1.20;;;;;11.00;102666.00;;;;5072228;28;20579;-81
2022/02/11 09:00:35;;;;;;;3.08;0.90;;;;;11.10;102673.00;;;;5084919;28;20275;-81
2022/02/11 09:03:03;;;;;;;4.72;1.00;;;;;11.10;102679.00;;;;5080455;28;20202;-80
2022/02/11 09:05:30;;;;;;;5.68;1.42;;;;;11.20;102688.00;;;;5080948;28;20198;-80
2022/02/11 09:07:59;;;;;;;6.63;1.35;;;;;11.40;102687.00;;;;5089972;28;20202;-80
2022/02/11 09:10:28;;;;;;;4.55;0.73;;;;;11.50;102693.00;;;;5075325;28;20922;-81
2022/02/11 09:12:59;;;;;;;3.63;0.95;;;;;11.50;102708.00;;;;5088619;28;20198;-79
2022/02/11 09:15:27;;;;;;;3.63;1.55;;;;;11.60;102711.00;;;;5081317;28;20218;-80
2022/02/11 09:17:56;;;;;;;5.05;1.10;;;;;11.70;102720.00;;;;5079140;28;20249;-80
2022/02/11 09:20:25;;;;;;;5.65;1.48;;;;;11.80;102728.00;;;;5081333;28;20198;-80
2022/02/11 09:22:53;;;;;;;4.35;1.00;;;;;11.90;102729.00;;;;5079295;28;20203;-80
2022/02/11 09:25:20;;;;;;;3.78;0.68;;;;;11.90;102731.00;;;;5081198;28;20203;-80
2022/02/11 09:27:48;;;;;;;4.88;0.95;;;;;12.00;102732.00;;;;5089285;28;20190;-80
2022/02/11 09:30:19;;;;;;;5.93;1.55;;;;;12.00;102739.00;;;;5080473;28;20203;-79
2022/02/11 09:32:48;;;;;;;5.85;0.73;;;;;12.00;102745.00;;;;5071951;28;20203;-80
2022/02/11 09:35:16;;;;;;;3.03;0.82;;;;;12.00;102742.00;;;;5071416;28;20209;-80
2022/02/11 09:37:44;;;;;;;3.28;0.80;;;;;12.00;102746.00;;;;5090638;28;20601;-79
2022/02/11 09:40:14;;;;;;;8.23;1.30;;;;;12.00;102756.00;;;;5085955;28;20198;-80
2022/02/11 09:42:42;;;;;;;3.40;0.88;;;;;12.00;102752.00;;;;5086851;28;20201;-80
2022/02/11 09:45:10;;;;;;;6.05;1.27;;;;;12.00;102755.00;;;;5089501;28;20217;-79
2022/02/11 09:47:39;;;;;;;4.68;0.98;;;;;12.00;102755.00;;;;5079795;28;20199;-79
2022/02/11 09:50:08;;;;;;;4.65;1.40;;;;;12.10;102771.00;;;;5081162;28;20202;-79
2022/02/11 09:52:38;;;;;;;2.85;0.80;;;;;12.00;102762.00;;;;5070564;28;20203;-79
2022/02/11 09:57:52;;;;;;;3.78;1.55;;;;;12.10;102772.00;;;;5069428;28;20225;-80
2022/02/11 10:00:21;;;;;;;2.67;0.90;;;;;12.20;102780.00;;;;5070697;28;20201;-79
2022/02/11 10:02:54;;;;;;;4.88;0.82;;;;;12.20;102799.00;;;;5069899;28;20248;-80
2022/02/11 10:05:23;;;;;;;2.65;0.55;;;;;12.30;102796.00;;;;5080818;28;20195;-79
2022/02/11 10:07:51;;;;;;;2.90;0.90;;;;;12.40;102805.00;;;;5071427;28;20214;-79
2022/02/11 10:10:38;;;;;;;4.90;1.17;;;;;12.40;102793.00;;;;5070930;28;20203;-79
2022/02/11 10:13:07;;;;;;;6.65;1.38;;;;;12.50;102802.00;;;;5071340;28;20203;-80
2022/02/11 10:15:37;;;;;;;11.07;1.13;;;;;12.50;102800.00;;;;5070405;28;20237;-80
2022/02/11 10:18:06;;;;;;;5.60;1.17;;;;;12.50;102818.00;;;;5073055;28;20331;-80
2022/02/11 10:20:37;;;;;;;2.85;0.82;;;;;12.50;102834.00;;;;5088677;28;20579;-80
2022/02/11 10:23:17;;;;;;;4.55;1.13;;;;;12.50;102829.00;;;;5081653;28;20203;-81
2022/02/11 10:26:05;;;;;;;10.45;1.30;;;;;12.50;102845.00;;;;5073561;28;20199;-82
2022/02/11 10:28:35;;;;;;;3.13;0.85;;;;;12.60;102850.00;;;;5079872;28;20289;-78
2022/02/11 10:31:11;;;;;;;5.68;1.00;;;;;12.60;102855.00;;;;5066861;28;20987;-81
2022/02/11 10:34:02;;;;;;;2.97;0.77;;;;;12.50;102862.00;;;;5071617;28;20190;-81
2022/02/11 10:36:32;;;;;;;2.85;0.88;;;;;12.60;102850.00;;;;5071184;28;20214;-81
2022/02/11 10:39:08;;;;;;;3.45;0.60;;;;;12.60;102857.00;;;;5072264;28;20190;-82
2022/02/11 10:41:37;;;;;;;2.75;1.02;;;;;12.70;102861.00;;;;5071767;28;20194;-81
2022/02/11 10:44:10;;;;;;;8.80;0.90;;;;;12.70;102873.00;;;;5076204;28;20203;-82
2022/02/11 10:46:40;;;;;;;4.72;1.02;;;;;12.70;102865.00;;;;5077261;28;20198;-82
2022/02/11 10:49:09;;;;;;;6.50;1.08;;;;;12.70;102870.00;;;;5070785;28;20201;-80
2022/02/11 10:51:42;;;;;;;5.90;0.93;;;;;12.70;102868.00;;;;5074671;28;20579;-79
2022/02/11 10:54:24;;;;;;;3.70;0.68;;;;;12.70;102872.00;;;;5071121;28;20191;-80
2022/02/11 10:56:52;;;;;;;4.43;0.55;;;;;12.80;102897.00;;;;5076818;28;20247;-79
2022/02/11 10:59:27;;;;;;;4.97;0.93;;;;;12.80;102896.00;;;;5079535;28;20226;-80
2022/02/11 11:01:56;;;;;;;5.15;0.98;;;;;12.90;102888.00;;;;5091533;28;20193;-80
2022/02/11 11:04:27;;;;;;;3.20;0.40;;;;;12.90;102881.00;;;;5085009;28;20206;-79
2022/02/11 11:06:55;;;;;;;2.78;0.43;;;;;13.00;102899.00;;;;5091120;28;20194;-80
2022/02/11 11:09:25;;;;;;;5.78;0.77;;;;;13.00;102905.00;;;;5086692;28;20222;-78
2022/02/11 11:11:53;;;;;;;5.00;0.93;;;;;13.10;102910.00;;;;5074061;28;20247;-79
2022/02/11 11:14:23;;;;;;;4.40;0.90;;;;;13.20;102906.00;;;;5070654;28;20209;-80
2022/02/11 11:16:53;;;;;;;6.90;0.50;;;;;13.30;102909.00;;;;5077239;28;20758;-79
2022/02/11 11:19:20;;;;;;;5.47;0.88;;;;;13.30;102913.00;;;;5089599;28;20202;-81
2022/02/11 11:22:10;;;;;;;1.33;0.40;;;;;13.40;102911.00;;;;5084480;28;20206;-80
2022/02/11 11:24:44;;;;;;;2.33;0.50;;;;;13.60;102913.00;;;;5070235;28;20248;-79
2022/02/11 11:27:11;;;;;;;3.33;0.68;;;;;13.70;102916.00;;;;5076268;28;20226;-78
2022/02/11 11:29:38;;;;;;;4.38;0.52;;;;;13.80;102915.00;;;;5082550;28;20191;-78
2022/02/11 11:32:06;;;;;;;4.95;0.68;;;;;13.90;102924.00;;;;5082346;28;20313;-79
2022/02/11 11:34:34;;;;;;;5.25;0.73;;;;;13.90;102929.00;;;;5072205;28;20214;-78
2022/02/11 11:37:09;;;;;;;1.90;0.55;;;;;13.90;102934.00;;;;5069099;28;20222;-78
2022/02/11 11:39:37;;;;;;;3.15;0.95;;;;;13.90;102940.00;;;;5084095;28;20198;-79
2022/02/11 11:42:11;;;;;;;5.00;0.50;;;;;13.90;102944.00;;;;5089397;28;20278;-79
2022/02/11 11:44:47;;;;;;;4.70;0.98;;;;;13.90;102961.00;;;;5090174;28;20190;-79
2022/02/11 11:47:25;;;;;;;3.90;0.80;;;;;14.00;102941.00;;;;5074925;28;20198;-77
2022/02/11 11:49:52;;;;;;;4.30;1.00;;;;;14.10;102956.00;;;;5078665;28;20202;-77
2022/02/11 11:52:21;;;;;;;2.55;1.00;;;;;14.10;102951.00;;;;5070822;28;20197;-79
2022/02/11 11:55:08;;;;;;;1.75;0.40;;;;;14.10;102957.00;;;;5075115;28;20286;-78
2022/02/11 11:57:38;;;;;;;5.97;1.10;;;;;14.20;102959.00;;;;5067646;28;20215;-78
2022/02/11 12:00:08;;;;;;;1.98;0.40;;;;;14.20;102961.00;;;;5071489;28;20267;-78
2022/02/11 12:02:38;;;;;;;5.85;0.88;;;;;14.30;102958.00;;;;5073977;28;20305;-79
2022/02/11 12:05:07;;;;;;;2.05;0.40;;;;;14.20;102955.00;;;;5078326;28;20484;-79
2022/02/11 12:07:37;;;;;;;3.05;0.55;;;;;14.20;102956.00;;;;5070575;28;20212;-78
2022/02/11 12:10:06;;;;;;;3.38;0.40;;;;;14.30;102966.00;;;;5069355;28;20207;-79
2022/02/11 12:12:36;;;;;;;4.25;0.52;;;;;14.30;102958.00;;;;5074344;28;20270;-79
2022/02/11 12:15:06;;;;;;;4.60;0.95;;;;;14.40;102956.00;;;;5081252;28;20304;-79
2022/02/11 12:17:34;;;;;;;2.55;0.45;;;;;14.50;102960.00;;;;5068924;28;20219;-76
2022/02/11 12:20:03;;;;;;;3.35;0.65;;;;;14.60;102967.00;;;;5068511;28;20191;-79
2022/02/11 12:22:32;;;;;;;3.78;0.98;;;;;14.70;102957.00;;;;5068596;28;20974;-79
2022/02/11 12:27:49;;;;;;;4.53;0.77;;;;;14.70;102966.00;;;;5077353;28;20296;-82
2022/02/11 12:30:21;;;;;;;6.85;0.70;;;;;14.70;102978.00;;;;5074021;28;20870;-78
2022/02/11 12:32:53;;;;;;;3.55;0.70;;;;;14.70;102969.00;;;;5081553;28;20195;-76
2022/02/11 12:35:24;;;;;;;4.43;0.68;;;;;14.70;102973.00;;;;5086467;28;20754;-80
2022/02/11 12:37:52;;;;;;;5.50;0.55;;;;;14.70;102977.00;;;;5071244;28;20241;-80
2022/02/11 12:40:24;;;;;;;2.58;0.73;;;;;14.70;102979.00;;;;5072039;28;20199;-79
2022/02/11 12:42:53;;;;;;;4.85;0.68;;;;;14.70;102982.00;;;;5091025;28;20209;-78
2022/02/11 12:45:24;;;;;;;4.63;0.50;;;;;14.60;102984.00;;;;5068715;28;20199;-80
2022/02/11 12:47:53;;;;;;;3.40;1.05;;;;;14.60;102981.00;;;;5078027;28;20617;-80
2022/02/11 12:50:21;;;;;;;2.33;0.50;;;;;14.50;102982.00;;;;5072772;28;20203;-80
2022/02/11 12:52:50;;;;;;;0.43;0.15;;;;;14.40;102978.00;;;;5072364;28;20644;-80
2022/02/11 12:55:22;;;;;;;3.22;0.65;;;;;14.40;102990.00;;;;5080341;28;20194;-80
2022/02/11 12:57:52;;;;;;;2.15;0.43;;;;;14.40;102992.00;;;;5075232;28;20240;-80
2022/02/11 13:00:22;;;;;;;1.48;0.43;;;;;14.40;102985.00;;;;5083965;28;20708;-80
2022/02/11 13:02:50;;;;;;;3.42;0.70;;;;;14.40;102992.00;;;;5072271;28;20199;-80
2022/02/11 13:05:20;;;;;;;2.45;0.30;;;;;14.40;102980.00;;;;5069940;28;20336;-80
2022/02/11 13:07:49;;;;;;;9.57;0.88;;;;;14.50;102988.00;;;;5077350;28;20204;-80
2022/02/11 13:10:22;;;;;;;3.95;0.70;;;;;14.50;102986.00;;;;5071188;28;20202;-79
2022/02/11 13:12:50;;;;;;;2.78;0.60;;;;;14.60;102978.00;;;;5070633;28;20282;-80
2022/02/11 13:15:19;;;;;;;4.15;0.93;;;;;14.70;102984.00;;;;5070573;28;20246;-80
2022/02/11 13:17:48;;;;;;;1.98;0.70;;;;;14.80;102984.00;;;;5072637;28;20222;-81
2022/02/11 13:20:18;;;;;;;2.10;0.50;;;;;15.00;102998.00;;;;5065787;28;20207;-81
2022/02/11 13:22:47;;;;;;;2.97;0.60;;;;;15.20;103001.00;;;;5079872;28;20256;-81
2022/02/11 13:25:16;;;;;;;7.43;0.80;;;;;15.30;102995.00;;;;5074746;28;20665;-81
2022/02/11 13:27:47;;;;;;;2.33;0.30;;;;;15.30;103005.00;;;;5067711;28;20198;-81
2022/02/11 13:30:22;;;;;;;4.00;0.70;;;;;15.40;102996.00;;;;5066285;28;20203;-81
2022/02/11 13:32:50;;;;;;;3.28;1.30;;;;;15.60;103016.00;;;;5074134;28;20933;-81
2022/02/11 13:35:17;;;;;;;1.73;0.60;;;;;15.70;103009.00;;;;5076499;28;20226;-81
2022/02/11 13:37:48;;;;;;;1.67;0.55;;;;;15.90;103016.00;;;;5081748;28;20218;-81
2022/02/11 13:40:22;;;;;;;2.08;0.50;;;;;15.90;103020.00;;;;5070582;28;20194;-82
2022/02/11 13:43:00;;;;;;;4.65;0.88;;;;;15.80;103021.00;;;;5078579;28;20205;-80
2022/02/11 13:45:28;;;;;;;1.90;0.32;;;;;15.80;103021.00;;;;5086427;28;20312;-81
2022/02/11 13:48:07;;;;;;;2.25;0.60;;;;;15.60;103027.00;;;;5068076;28;20629;-82
2022/02/11 13:50:54;;;;;;;4.95;0.95;;;;;15.50;103024.00;;;;5075359;28;20579;-83
2022/02/11 13:53:36;;;;;;;2.08;1.00;;;;;15.30;103030.00;;;;5068286;28;20237;-83
2022/02/11 13:56:04;;;;;;;2.65;0.60;;;;;15.30;103035.00;;;;5077669;28;20244;-82
2022/02/11 13:58:34;;;;;;;1.10;0.38;;;;;15.30;103033.00;;;;5067814;28;20223;-82
2022/02/11 14:01:02;;;;;;;1.88;0.47;;;;;15.60;103029.00;;;;5066099;28;20287;-82
2022/02/11 14:03:31;;;;;;;1.92;0.50;;;;;16.00;103035.00;;;;5065855;28;20199;-83
2022/02/11 14:06:01;;;;;;;4.38;0.52;;;;;16.50;103034.00;;;;5078735;28;20493;-82
2022/02/11 14:08:43;;;;;;;1.48;0.60;;;;;17.00;103032.00;;;;5087328;28;20577;-82
2022/02/11 14:11:12;;;;;;;3.17;0.57;;;;;17.40;103042.00;;;;5087449;28;20198;-83
2022/02/11 14:13:41;;;;;;;3.15;0.55;;;;;17.90;103039.00;;;;5087674;28;20282;-82
2022/02/11 14:16:09;;;;;;;3.00;0.70;;;;;18.40;103048.00;;;;5076980;28;20254;-83
2022/02/11 14:18:40;;;;;;;3.80;0.70;;;;;18.80;103054.00;;;;5088149;28;20206;-82
2022/02/11 14:21:07;;;;;;;3.13;0.70;;;;;18.90;103047.00;;;;5071066;28;20243;-82
2022/02/11 14:23:34;;;;;;;3.28;1.00;;;;;19.00;103054.00;;;;5069312;28;20206;-83
2022/02/11 14:26:02;;;;;;;2.65;0.50;;;;;18.90;103049.00;;;;5071621;28;20222;-81
2022/02/11 14:28:30;;;;;;;1.90;0.40;;;;;18.70;103071.00;;;;5068003;28;20284;-80
2022/02/11 14:30:59;;;;;;;1.52;0.35;;;;;18.50;103066.00;;;;5074421;28;20194;-81
2022/02/11 14:33:26;;;;;;;0.65;0.28;;;;;18.20;103070.00;;;;5071553;28;20187;-81
2022/02/11 14:35:54;;;;;;;2.45;0.60;;;;;17.90;103069.00;;;;5081303;28;20218;-80
2022/02/11 14:38:21;;;;;;;2.78;0.82;;;;;17.60;103071.00;;;;5076693;28;21048;-79
2022/02/11 14:43:33;;;;;;;1.33;0.50;;;;;17.10;103074.00;;;;5067394;28;20205;-79
2022/02/11 14:46:02;;;;;;;1.52;0.45;;;;;16.90;103068.00;;;;5067423;28;20202;-79
2022/02/11 14:48:29;;;;;;;2.17;0.47;;;;;16.70;103078.00;;;;5077499;28;20656;-78
2022/02/11 14:50:56;;;;;;;1.25;0.60;;;;;16.50;103084.00;;;;5073433;28;20197;-78
2022/02/11 14:53:24;;;;;;;2.45;0.55;;;;;16.30;103086.00;;;;5072442;28;20206;-78
2022/02/11 14:55:51;;;;;;;4.60;1.00;;;;;16.10;103091.00;;;;5076444;28;20244;-79
2022/02/11 14:58:18;;;;;;;1.52;0.45;;;;;15.90;103090.00;;;;5070605;28;20429;-80
2022/02/11 15:00:46;;;;;;;1.23;0.50;;;;;15.80;103092.00;;;;5075176;28;20625;-80
2022/02/11 15:03:15;;;;;;;0.65;0.30;;;;;15.70;103085.00;;;;5076148;28;20291;-79
2022/02/11 15:05:42;;;;;;;2.42;0.30;;;;;15.60;103084.00;;;;5072490;28;20263;-79
2022/02/11 15:08:09;;;;;;;1.10;0.30;;;;;15.50;103091.00;;;;5077617;28;20195;-79
2022/02/11 15:10:37;;;;;;;2.58;0.28;;;;;15.40;103092.00;;;;5071390;28;20679;-79
2022/02/11 15:13:08;;;;;;;1.98;0.57;;;;;15.30;103093.00;;;;5068502;28;20340;-79
2022/02/11 15:15:37;;;;;;;2.85;0.68;;;;;15.20;103091.00;;;;5073591;28;20234;-80
2022/02/11 15:18:05;;;;;;;1.77;0.70;;;;;15.10;103090.00;;;;5081664;28;20218;-81
2022/02/11 15:20:34;;;;;;;2.83;0.90;;;;;15.00;103086.00;;;;5083015;28;20734;-81
2022/02/11 15:23:02;;;;;;;1.88;0.80;;;;;15.00;103091.00;;;;5071769;28;20274;-81
2022/02/11 15:25:31;;;;;;;2.17;0.55;;;;;14.90;103096.00;;;;5085423;28;20202;-80